Time;durP1;ratioP1;P1;durP2;ratioP2;P2;SDS_P1;SDS_P2;PMS_P1;PMS_P2;Temp;Humidity;BMP_temperature;BMP_pressure;BME280_temperature;BME280_humidity;BME280_pressure;Samples;Min_cycle;Max_cycle;Signal;HPM_P1;HPM_P2
2022/09/03 00:01:53;;;;;;;4.50;1.88;;;;;;;14.29;79.23;96953.53;5033780;28;20095;-64
2022/09/03 00:04:52;;;;;;;4.43;1.88;;;;;;;14.21;82.03;96956.88;5047810;28;20045;-65
2022/09/03 00:07:27;;;;;;;3.65;2.30;;;;;;;14.13;79.03;96952.88;5047225;28;20057;-64
2022/09/03 00:10:04;;;;;;;4.07;2.00;;;;;;;14.23;79.62;96943.78;5051518;28;20056;-63
2022/09/03 00:12:40;;;;;;;5.45;2.13;;;;;;;14.21;82.15;96956.06;5048096;28;20560;-64
2022/09/03 00:15:17;;;;;;;3.65;1.85;;;;;;;14.24;80.58;96948.16;5040981;28;20037;-64
2022/09/03 00:17:54;;;;;;;4.75;2.03;;;;;;;14.23;80.32;96948.44;5047523;28;20065;-64
2022/09/03 00:20:45;;;;;;;2.65;1.83;;;;;;;14.36;79.92;96952.38;5047855;28;20041;-64
2022/09/03 00:23:18;;;;;;;2.90;1.80;;;;;;;14.40;80.18;96951.53;5047681;28;20532;-64
2022/09/03 00:25:54;;;;;;;4.28;2.05;;;;;;;14.47;80.38;96947.66;5047832;28;20056;-64
2022/09/03 00:28:40;;;;;;;8.02;1.95;;;;;;;14.44;81.68;96935.41;5047455;28;20064;-65
2022/09/03 00:31:26;;;;;;;3.67;2.03;;;;;;;14.40;82.79;96945.25;5047510;28;20037;-64
2022/09/03 00:34:06;;;;;;;3.70;2.25;;;;;;;14.50;80.83;96942.47;5028390;28;20451;-64
2022/09/03 00:36:44;;;;;;;3.80;2.15;;;;;;;14.52;81.49;96944.91;5044973;28;20451;-63
2022/09/03 00:39:16;;;;;;;3.50;1.85;;;;;;;14.62;78.09;96939.31;5052072;28;20114;-65
2022/09/03 00:41:46;;;;;;;4.40;2.47;;;;;;;14.76;76.69;96936.75;5037493;28;20059;-64
2022/09/03 00:44:25;;;;;;;6.40;1.90;;;;;;;14.90;78.67;96928.69;5047834;28;20307;-64
2022/09/03 00:46:59;;;;;;;3.35;1.90;;;;;;;14.66;81.94;96928.66;5067701;28;20052;-64
2022/09/03 00:49:31;;;;;;;3.17;2.08;;;;;;;14.62;81.90;96933.88;5054840;28;20044;-64
2022/09/03 00:52:24;;;;;;;4.82;2.15;;;;;;;14.26;82.63;96932.31;5047302;28;20033;-64
2022/09/03 00:55:00;;;;;;;4.05;1.83;;;;;;;14.16;81.32;96938.66;5055224;28;20255;-64
2022/09/03 00:57:46;;;;;;;5.65;2.30;;;;;;;14.14;81.97;96937.34;5042827;28;20048;-64
2022/09/03 01:00:20;;;;;;;3.30;2.05;;;;;;;14.11;83.54;96952.34;5046772;28;20033;-63
2022/09/03 01:03:08;;;;;;;3.00;2.00;;;;;;;14.24;82.27;96955.50;5045966;28;20048;-63
2022/09/03 01:05:42;;;;;;;6.25;2.20;;;;;;;14.32;81.74;96943.97;5044075;28;20043;-64
2022/09/03 01:08:12;;;;;;;2.80;1.90;;;;;;;14.40;81.02;96950.72;5043859;28;20475;-64
2022/09/03 01:10:47;;;;;;;4.70;2.15;;;;;;;14.44;81.44;96940.88;5046839;28;20048;-64
2022/09/03 01:13:22;;;;;;;4.75;2.20;;;;;;;14.43;81.14;96937.34;5046340;28;20048;-64
2022/09/03 01:16:16;;;;;;;3.05;1.83;;;;;;;14.33;82.46;96944.81;5047985;28;20478;-64
2022/09/03 01:19:01;;;;;;;4.03;2.30;;;;;;;14.35;82.20;96945.31;5026672;28;20042;-65
2022/09/03 01:21:33;;;;;;;4.57;2.20;;;;;;;14.40;82.08;96948.00;5046960;28;20028;-66
2022/09/03 01:24:06;;;;;;;;;;;;;;;14.40;82.43;96937.09;5047439;28;20037;-66
2022/09/03 01:26:57;;;;;;;3.22;2.13;;;;;;;14.48;81.80;96933.75;5046341;28;20513;-67
2022/09/03 01:29:54;;;;;;;4.03;2.42;;;;;;;14.49;81.63;96940.81;5046378;28;20044;-66
2022/09/03 01:32:34;;;;;;;4.20;2.13;;;;;;;14.43;83.25;96947.41;5042926;28;20057;-66
2022/09/03 01:35:16;;;;;;;3.83;1.95;;;;;;;14.18;85.93;96941.94;5056545;28;20063;-66
2022/09/03 01:37:51;;;;;;;6.55;2.50;;;;;;;14.23;85.06;96941.06;5029554;28;20455;-66
2022/09/03 01:40:27;;;;;;;4.10;2.40;;;;;;;14.36;83.17;96945.03;5046650;28;20094;-66
2022/09/03 01:43:02;;;;;;;3.78;2.10;;;;;;;14.23;84.49;96937.53;5046235;28;20581;-67
2022/09/03 01:45:43;;;;;;;4.65;2.30;;;;;;;14.29;83.55;96937.22;5053520;28;20050;-67
2022/09/03 01:48:32;;;;;;;4.97;2.08;;;;;;;14.29;84.01;96934.47;5046579;28;20045;-67
2022/09/03 01:51:09;;;;;;;;;;;;;;;14.31;83.46;96943.16;5035260;28;20417;-64
2022/09/03 01:53:57;;;;;;;4.22;1.90;;;;;;;14.23;83.88;96951.16;5039276;28;19920;-63
2022/09/03 01:56:35;;;;;;;5.40;2.50;;;;;;;14.12;85.14;96955.88;5045678;28;20058;-64
2022/09/03 01:59:20;;;;;;;5.07;2.38;;;;;;;14.08;85.61;96952.91;5041732;28;20274;-63
2022/09/03 02:02:01;;;;;;;5.75;2.40;;;;;;;14.22;84.27;96958.50;5040385;28;20048;-63
2022/09/03 02:04:27;;;;;;;5.28;2.40;;;;;;;13.96;87.48;96952.47;5049844;28;20420;-64
2022/09/03 02:06:59;;;;;;;11.27;2.40;;;;;;;14.02;85.94;96949.44;5065363;28;20649;-64
2022/09/03 02:09:26;;;;;;;4.18;2.55;;;;;;;14.10;83.83;96947.16;5053922;28;20048;-64
2022/09/03 02:12:09;;;;;;;3.53;1.90;;;;;;;14.19;81.62;96942.72;5042065;28;20045;-64
2022/09/03 02:14:36;;;;;;;3.85;2.17;;;;;;;14.21;82.75;96943.28;5044170;28;20038;-64
2022/09/03 02:17:05;;;;;;;3.03;2.00;;;;;;;14.27;82.15;96949.50;5040060;28;20046;-64
2022/09/03 02:19:33;;;;;;;3.60;2.05;;;;;;;14.30;83.18;96951.66;5035871;28;20048;-64
2022/09/03 02:22:00;;;;;;;4.40;2.03;;;;;;;14.05;84.57;96954.28;5045182;28;20072;-64
2022/09/03 02:24:27;;;;;;;4.57;2.30;;;;;;;13.93;85.82;96959.28;5046061;28;20110;-64
2022/09/03 02:26:54;;;;;;;4.40;2.22;;;;;;;13.96;85.83;96961.44;5045406;28;20044;-64
2022/09/03 02:29:20;;;;;;;4.32;2.70;;;;;;;14.13;84.53;96963.78;5045228;28;20041;-65
2022/09/03 02:31:47;;;;;;;6.60;2.30;;;;;;;14.22;83.71;96963.16;5045235;28;20049;-63
2022/09/03 02:34:14;;;;;;;5.57;2.25;;;;;;;13.95;87.53;96957.09;5044720;28;20531;-63
2022/09/03 02:36:46;;;;;;;2.80;2.20;;;;;;;13.90;87.27;96952.50;5045870;28;20075;-64
2022/09/03 02:39:14;;;;;;;3.55;2.35;;;;;;;13.84;88.02;96950.09;5045670;28;20075;-64
2022/09/03 02:41:41;;;;;;;3.22;2.20;;;;;;;13.67;88.81;96954.03;5045276;28;20048;-64
2022/09/03 02:44:15;;;;;;;4.45;2.10;;;;;;;13.74;87.26;96948.25;5045965;28;20055;-63
2022/09/03 02:46:56;;;;;;;4.40;2.30;;;;;;;13.69;86.70;96951.03;5063939;28;20052;-64
2022/09/03 02:49:23;;;;;;;4.25;2.30;;;;;;;13.63;86.47;96945.63;5058218;28;20041;-63
2022/09/03 02:51:49;;;;;;;4.95;2.22;;;;;;;13.65;87.73;96937.97;5045209;28;20052;-64
2022/09/03 02:54:16;;;;;;;3.83;2.03;;;;;;;13.57;87.95;96935.06;5045661;28;20045;-64
2022/09/03 02:56:48;;;;;;;4.25;2.50;;;;;;;13.49;88.19;96939.19;5045303;28;20059;-63
2022/09/03 02:59:16;;;;;;;3.42;2.50;;;;;;;13.43;89.61;96945.72;5045012;28;20500;-64
2022/09/03 03:01:43;;;;;;;5.57;2.65;;;;;;;13.37;90.65;96953.91;5050582;28;20053;-64
2022/09/03 03:04:12;;;;;;;4.32;2.63;;;;;;;13.36;89.38;96946.84;5045117;28;20041;-63
2022/09/03 03:06:38;;;;;;;5.15;2.35;;;;;;;13.53;87.71;96945.69;5065143;28;20044;-64
2022/09/03 03:09:05;;;;;;;5.78;2.60;;;;;;;13.71;86.44;96949.63;5050029;28;20041;-64
2022/09/03 03:11:34;;;;;;;4.78;2.30;;;;;;;13.76;85.75;96946.91;5044338;28;20071;-63
2022/09/03 03:14:02;;;;;;;4.72;2.78;;;;;;;13.87;85.21;96954.97;5045136;28;20531;-64
2022/09/03 03:16:28;;;;;;;4.70;2.45;;;;;;;13.75;86.18;96950.69;5051206;28;20509;-64
2022/09/03 03:18:56;;;;;;;4.07;2.53;;;;;;;13.82;86.23;96955.81;5044954;28;20045;-65
2022/09/03 03:21:22;;;;;;;5.18;2.53;;;;;;;13.88;86.14;96956.59;5044914;28;20106;-65
2022/09/03 03:23:49;;;;;;;4.35;2.25;;;;;;;13.72;87.20;96954.00;5046951;28;20051;-64
2022/09/03 03:26:17;;;;;;;4.72;2.65;;;;;;;13.64;87.60;96957.31;5048870;28;20075;-64
2022/09/03 03:28:45;;;;;;;5.90;2.40;;;;;;;13.76;86.86;96957.78;5049054;28;20664;-64
2022/09/03 03:31:14;;;;;;;4.70;2.38;;;;;;;13.84;86.35;96952.81;5048370;28;20110;-64
2022/09/03 03:33:41;;;;;;;4.00;2.58;;;;;;;13.86;86.11;96948.72;5044053;28;20240;-64
2022/09/03 03:36:11;;;;;;;4.30;2.58;;;;;;;13.88;86.59;96943.81;5050576;28;20049;-63
2022/09/03 03:38:38;;;;;;;3.85;2.30;;;;;;;13.87;87.26;96953.09;5029253;28;20082;-63
2022/09/03 03:41:14;;;;;;;5.13;2.60;;;;;;;13.75;88.64;96944.47;5042271;28;20040;-64
2022/09/03 03:43:41;;;;;;;5.85;2.53;;;;;;;13.73;88.42;96950.19;5048873;28;20044;-64
2022/09/03 03:46:09;;;;;;;4.13;2.60;;;;;;;13.57;89.78;96952.22;5049541;28;20212;-64
2022/09/03 03:48:37;;;;;;;8.05;2.60;;;;;;;13.47;90.89;96952.22;5048111;28;20041;-64
2022/09/03 03:51:06;;;;;;;4.70;3.03;;;;;;;13.44;90.55;96950.88;5048584;28;20432;-64
2022/09/03 03:53:34;;;;;;;4.20;2.45;;;;;;;13.58;89.96;96953.00;5048289;28;20036;-63
2022/09/03 03:56:04;;;;;;;8.55;2.70;;;;;;;13.67;88.10;96951.31;5047856;28;20041;-63
2022/09/03 03:58:32;;;;;;;4.05;2.67;;;;;;;13.71;87.99;96957.00;5048544;28;20045;-63
2022/09/03 04:01:07;;;;;;;5.25;2.40;;;;;;;13.84;87.27;96961.81;5047987;28;20040;-64
2022/09/03 04:03:35;;;;;;;4.70;2.67;;;;;;;13.82;86.69;96955.81;5048711;28;20478;-63
2022/09/03 04:06:03;;;;;;;7.15;2.25;;;;;;;13.89;86.44;96956.31;5048184;28;20111;-64
2022/09/03 04:08:34;;;;;;;4.45;2.50;;;;;;;13.93;85.43;96958.47;5048037;28;20056;-64
2022/09/03 04:11:02;;;;;;;4.20;2.58;;;;;;;13.69;88.39;96959.19;5047869;28;20095;-64
2022/09/03 04:13:30;;;;;;;3.92;2.42;;;;;;;13.79;88.07;96957.19;5048048;28;20045;-63
2022/09/03 04:16:08;;;;;;;4.55;2.40;;;;;;;13.95;86.86;96961.72;5062609;28;20044;-64
2022/09/03 04:18:36;;;;;;;6.03;2.70;;;;;;;14.05;86.55;96948.84;5066519;28;20044;-64
2022/09/03 04:21:09;;;;;;;6.22;2.72;;;;;;;14.19;85.65;96959.06;5047722;28;20650;-64
2022/09/03 04:23:40;;;;;;;4.60;2.20;;;;;;;14.28;86.31;96960.09;5048690;28;20080;-64
2022/09/03 04:26:09;;;;;;;6.78;2.38;;;;;;;14.23;87.09;96956.59;5048024;28;20566;-64
2022/09/03 04:28:36;;;;;;;3.58;2.20;;;;;;;14.21;87.05;96950.63;5048396;28;20458;-64
2022/09/03 04:31:06;;;;;;;5.60;2.30;;;;;;;14.06;89.06;96946.94;5047956;28;20757;-64
2022/09/03 04:33:34;;;;;;;4.78;2.70;;;;;;;13.92;88.13;96952.22;5048057;28;20045;-64
2022/09/03 04:36:10;;;;;;;5.30;2.50;;;;;;;14.04;86.95;96949.94;5047785;28;20045;-64
2022/09/03 04:38:39;;;;;;;3.72;2.20;;;;;;;14.05;87.02;96958.94;5048085;28;20067;-64
2022/09/03 04:41:07;;;;;;;3.50;2.30;;;;;;;14.03;87.65;96951.03;5047435;28;20095;-64
2022/09/03 04:43:34;;;;;;;4.07;2.50;;;;;;;14.00;88.60;96958.94;5047389;28;20512;-63
2022/09/03 04:46:04;;;;;;;3.75;2.22;;;;;;;14.01;88.38;96952.44;5059223;28;20458;-64
2022/09/03 04:48:32;;;;;;;3.53;2.50;;;;;;;13.97;88.08;96960.34;5048044;28;20443;-64
2022/09/03 04:51:12;;;;;;;5.85;2.70;;;;;;;14.12;86.75;96964.84;5045940;28;20037;-64
2022/09/03 04:53:40;;;;;;;3.22;2.17;;;;;;;14.25;86.58;96965.28;5047935;28;20056;-64
2022/09/03 04:56:18;;;;;;;3.25;2.33;;;;;;;14.33;86.62;96956.50;5046983;28;20052;-64
2022/09/03 04:58:46;;;;;;;4.43;2.28;;;;;;;14.36;86.95;96953.22;5047636;28;20036;-64
2022/09/03 05:01:21;;;;;;;5.53;2.65;;;;;;;14.36;87.40;96964.09;5047604;28;20063;-64
2022/09/03 05:03:51;;;;;;;;;;;;;;;14.09;89.05;96959.16;5047546;28;20055;-63
2022/09/03 05:06:18;;;;;;;3.22;2.42;;;;;;;13.89;90.42;96966.38;5047121;28;19963;-64
2022/09/03 05:08:49;;;;;;;3.90;2.30;;;;;;;14.00;90.38;96967.94;5047175;28;20053;-64
2022/09/03 05:11:16;;;;;;;5.22;2.65;;;;;;;14.14;87.86;96965.38;5046806;28;20099;-64
2022/09/03 05:13:47;;;;;;;3.88;2.50;;;;;;;14.22;88.09;96963.94;5047467;28;20045;-64
2022/09/03 05:16:14;;;;;;;4.45;2.67;;;;;;;14.25;87.89;96968.00;5061457;28;20102;-64
2022/09/03 05:18:41;;;;;;;5.03;2.70;;;;;;;14.35;89.20;96970.66;5050297;28;20118;-64
2022/09/03 05:21:09;;;;;;;4.25;2.45;;;;;;;14.46;88.28;96962.38;5063334;28;20181;-63
2022/09/03 05:23:38;;;;;;;4.30;2.95;;;;;;;14.60;88.75;96962.50;5054990;28;20032;-64
2022/09/03 05:26:08;;;;;;;5.32;3.10;;;;;;;14.42;92.79;96964.88;5046955;28;20041;-64
2022/09/03 05:28:38;;;;;;;4.32;2.72;;;;;;;14.04;94.48;96968.19;5046900;28;20045;-63
2022/09/03 05:31:07;;;;;;;7.45;2.88;;;;;;;14.08;95.00;96971.16;5046638;28;20037;-64
2022/09/03 05:33:42;;;;;;;5.20;3.35;;;;;;;14.13;94.13;96974.66;5046658;28;20052;-65
2022/09/03 05:36:11;;;;;;;6.43;3.40;;;;;;;14.24;94.52;96978.09;5046418;28;20056;-64
2022/09/03 05:38:38;;;;;;;5.35;3.00;;;;;;;14.42;93.67;96978.50;5046883;28;20041;-64
2022/09/03 05:41:07;;;;;;;6.28;3.45;;;;;;;14.57;92.71;96975.59;5065416;28;20438;-63
2022/09/03 05:43:34;;;;;;;7.03;3.33;;;;;;;14.72;91.63;96962.94;5027190;28;20408;-64
2022/09/03 05:46:04;;;;;;;5.63;3.50;;;;;;;14.93;90.76;96970.91;5051863;28;20041;-65
2022/09/03 05:48:32;;;;;;;5.22;3.38;;;;;;;15.06;90.55;96970.22;5046239;28;20044;-64
2022/09/03 05:51:16;;;;;;;5.20;3.60;;;;;;;15.07;92.67;96966.38;5026873;28;20726;-64
2022/09/03 05:53:45;;;;;;;4.78;3.60;;;;;;;14.96;94.02;96967.59;5026847;28;20280;-64
2022/09/03 05:56:22;;;;;;;5.95;4.07;;;;;;;15.05;94.02;96976.78;5031773;28;20283;-63
2022/09/03 05:58:51;;;;;;;5.03;3.85;;;;;;;15.08;93.52;96986.28;5060067;28;20385;-66
2022/09/03 06:01:24;;;;;;;5.75;3.95;;;;;;;15.29;91.13;96991.50;5052232;28;20048;-64
2022/09/03 06:03:59;;;;;;;7.13;3.90;;;;;;;15.53;89.30;96994.16;5046425;28;20440;-65
2022/09/03 06:06:27;;;;;;;6.40;4.03;;;;;;;15.64;88.14;96989.38;5046239;28;20044;-64
2022/09/03 06:08:57;;;;;;;5.00;3.75;;;;;;;15.77;87.66;96997.94;5046506;28;20048;-65
2022/09/03 06:11:28;;;;;;;5.28;3.80;;;;;;;15.82;87.66;96995.94;5045663;28;20040;-64
2022/09/03 06:14:04;;;;;;;5.90;4.07;;;;;;;15.94;87.21;96997.41;5046601;28;20033;-64
2022/09/03 06:16:33;;;;;;;6.18;3.83;;;;;;;16.08;87.06;97000.22;5058628;28;20113;-67
2022/09/03 06:19:00;;;;;;;4.72;3.50;;;;;;;16.22;85.73;97000.28;5046400;28;20044;-68
2022/09/03 06:21:27;;;;;;;5.97;3.60;;;;;;;16.30;84.43;97002.34;5046018;28;20099;-65
2022/09/03 06:23:56;;;;;;;5.13;3.55;;;;;;;16.43;84.63;97005.41;5045084;28;20041;-67
2022/09/03 06:26:27;;;;;;;5.82;3.15;;;;;;;16.52;83.76;97004.41;5046168;28;20045;-66
2022/09/03 06:28:55;;;;;;;6.05;2.90;;;;;;;16.65;83.23;97004.75;5061107;28;20048;-67
2022/09/03 06:31:22;;;;;;;6.88;3.80;;;;;;;16.76;82.03;97000.72;5062119;28;20102;-65
2022/09/03 06:33:48;;;;;;;8.85;3.85;;;;;;;16.76;82.01;96997.97;5043806;28;20695;-66
2022/09/03 06:36:17;;;;;;;5.55;3.45;;;;;;;16.75;82.04;96996.38;5042929;28;20053;-66
2022/09/03 06:38:45;;;;;;;5.50;3.80;;;;;;;16.82;82.06;97001.44;5044687;28;20129;-66
2022/09/03 06:41:23;;;;;;;5.85;3.72;;;;;;;16.72;83.57;97002.44;5044973;28;20125;-65
2022/09/03 06:43:58;;;;;;;8.30;3.70;;;;;;;16.67;84.71;96998.97;5045216;28;20037;-66
2022/09/03 06:46:24;;;;;;;7.15;4.43;;;;;;;16.78;83.19;97001.22;5059366;28;20055;-65
2022/09/03 06:48:52;;;;;;;5.90;3.40;;;;;;;16.87;82.25;96995.88;5044910;28;20033;-66
2022/09/03 06:51:21;;;;;;;5.47;3.70;;;;;;;17.03;81.78;97006.53;5045737;28;20524;-66
2022/09/03 06:53:51;;;;;;;5.78;3.53;;;;;;;17.20;81.35;97003.19;5046113;28;20076;-66
2022/09/03 06:56:25;;;;;;;7.47;3.55;;;;;;;17.33;81.28;96998.84;5045353;28;20045;-66
2022/09/03 06:58:57;;;;;;;4.72;3.45;;;;;;;17.40;79.76;96990.22;5058611;28;20044;-66
2022/09/03 07:01:27;;;;;;;6.40;3.72;;;;;;;17.53;79.09;96999.50;5049321;28;20052;-66
2022/09/03 07:03:56;;;;;;;5.60;3.33;;;;;;;17.55;77.71;96998.09;5049898;28;20128;-66
2022/09/03 07:06:24;;;;;;;5.30;3.60;;;;;;;17.66;77.96;97004.16;5049084;28;20102;-66
2022/09/03 07:08:51;;;;;;;4.80;3.60;;;;;;;17.60;77.14;97008.13;5049642;28;20459;-65
2022/09/03 07:11:22;;;;;;;4.45;3.17;;;;;;;17.60;78.02;97013.59;5049400;28;20037;-65
2022/09/03 07:13:50;;;;;;;8.95;3.33;;;;;;;17.70;81.50;97009.00;5049243;28;20397;-66
2022/09/03 07:16:29;;;;;;;4.93;3.80;;;;;;;17.82;80.52;97012.03;5064411;28;20040;-66
2022/09/03 07:18:56;;;;;;;5.38;3.67;;;;;;;18.00;79.56;97010.25;5062606;28;20036;-66
2022/09/03 07:21:24;;;;;;;8.30;3.22;;;;;;;18.06;79.70;97014.47;5049072;28;20052;-66
2022/09/03 07:23:52;;;;;;;5.32;3.17;;;;;;;18.13;79.30;97014.06;5049058;28;20389;-66
2022/09/03 07:26:22;;;;;;;6.55;3.45;;;;;;;18.13;78.78;97016.03;5047096;28;20041;-66
2022/09/03 07:28:50;;;;;;;4.78;3.15;;;;;;;18.19;77.59;97021.06;5051297;28;20091;-66
2022/09/03 07:31:25;;;;;;;4.72;3.63;;;;;;;18.18;78.11;97019.44;5049217;28;20056;-66
2022/09/03 07:33:59;;;;;;;5.63;3.17;;;;;;;18.13;75.28;97018.78;5048496;28;20068;-66
2022/09/03 07:36:28;;;;;;;5.63;3.20;;;;;;;18.24;74.08;97005.63;5029844;28;20424;-66
2022/09/03 07:39:01;;;;;;;4.15;2.97;;;;;;;18.46;72.79;97021.22;5049234;28;20051;-66
2022/09/03 07:41:27;;;;;;;4.90;2.95;;;;;;;18.51;72.80;97012.09;5048756;28;20041;-65
2022/09/03 07:43:55;;;;;;;4.55;3.20;;;;;;;18.61;71.83;97016.50;5048845;28;20090;-66
2022/09/03 07:46:26;;;;;;;4.35;3.53;;;;;;;18.62;71.98;97016.19;5062381;28;20044;-66
2022/09/03 07:48:55;;;;;;;4.80;2.90;;;;;;;18.55;71.96;97026.78;5049040;28;20044;-66
2022/09/03 07:51:28;;;;;;;3.75;2.58;;;;;;;18.52;71.18;97022.75;5048449;28;20843;-66
2022/09/03 07:53:56;;;;;;;5.00;2.90;;;;;;;18.48;71.19;97026.41;5048831;28;20041;-66
2022/09/03 07:56:24;;;;;;;4.07;3.03;;;;;;;18.38;71.42;97027.47;5044807;28;20301;-66
2022/09/03 07:58:50;;;;;;;5.50;3.17;;;;;;;18.44;70.78;97037.19;5052610;28;20044;-67
2022/09/03 08:01:19;;;;;;;4.95;3.63;;;;;;;18.19;72.62;97032.03;5047826;28;20041;-66
2022/09/03 08:03:49;;;;;;;5.07;2.92;;;;;;;18.47;71.94;97031.09;5048537;28;20056;-66
2022/09/03 08:06:17;;;;;;;5.10;3.50;;;;;;;18.23;73.07;97037.69;5048547;28;20051;-66
2022/09/03 08:08:44;;;;;;;4.40;2.95;;;;;;;18.28;73.06;97048.53;5047719;28;20053;-66
2022/09/03 08:11:16;;;;;;;4.50;3.30;;;;;;;18.26;73.42;97045.31;5048666;28;20447;-66
2022/09/03 08:13:52;;;;;;;4.35;2.97;;;;;;;18.07;73.15;97042.69;5047807;28;20063;-66
2022/09/03 08:16:19;;;;;;;4.03;3.03;;;;;;;18.01;74.39;97052.97;5049362;28;20049;-66
2022/09/03 08:18:46;;;;;;;6.10;3.45;;;;;;;17.87;75.01;97057.66;5048515;28;20045;-66
2022/09/03 08:21:16;;;;;;;5.55;3.85;;;;;;;17.95;75.41;97062.41;5048287;28;20554;-66
2022/09/03 08:23:47;;;;;;;7.00;3.70;;;;;;;18.01;75.00;97068.56;5047368;28;20041;-66
2022/09/03 08:26:15;;;;;;;6.72;3.38;;;;;;;18.13;74.22;97068.88;5048325;28;20271;-66
2022/09/03 08:28:42;;;;;;;6.43;3.40;;;;;;;17.98;74.94;97069.22;5053526;28;20053;-66
2022/09/03 08:31:15;;;;;;;5.28;3.45;;;;;;;17.84;74.43;97070.03;5048522;28;20079;-66
2022/09/03 08:33:46;;;;;;;4.43;2.90;;;;;;;17.97;73.66;97070.31;5047445;28;20052;-66
2022/09/03 08:36:15;;;;;;;4.57;3.25;;;;;;;18.15;72.54;97071.31;5047892;28;20041;-66
2022/09/03 08:38:44;;;;;;;5.72;3.30;;;;;;;18.29;71.47;97071.28;5047990;28;20099;-66
2022/09/03 08:41:17;;;;;;;4.95;3.08;;;;;;;18.49;69.85;97067.22;5047899;28;20041;-65
2022/09/03 08:43:56;;;;;;;4.75;3.05;;;;;;;18.63;68.40;97066.34;5047534;28;20045;-66
2022/09/03 08:46:50;;;;;;;3.65;2.78;;;;;;;18.68;68.58;97071.69;5053894;28;20532;-66
2022/09/03 08:49:25;;;;;;;4.07;3.08;;;;;;;18.79;68.83;97078.53;5048187;28;20044;-66
2022/09/03 08:51:54;;;;;;;5.45;3.22;;;;;;;18.67;68.93;97083.78;5047189;28;20087;-66
2022/09/03 08:54:25;;;;;;;5.97;3.00;;;;;;;18.57;67.78;97082.09;5047772;28;20075;-66
2022/09/03 08:56:53;;;;;;;4.95;3.03;;;;;;;18.71;67.35;97098.50;5047450;28;20041;-66
2022/09/03 08:59:21;;;;;;;5.18;3.00;;;;;;;18.33;69.17;97096.94;5050355;28;20056;-66
2022/09/03 09:02:32;;;;;;;4.53;3.00;;;;;;;18.72;68.21;97100.09;5047476;28;20040;-66
2022/09/03 09:05:15;;;;;;;4.30;2.90;;;;;;;18.99;67.70;97095.63;5029505;28;20060;-67
2022/09/03 09:08:04;;;;;;;4.50;2.70;;;;;;;19.11;67.58;97086.81;5047696;28;20060;-66
2022/09/03 09:10:45;;;;;;;4.68;2.78;;;;;;;19.18;66.42;97091.84;5047207;28;20037;-66
2022/09/03 09:13:37;;;;;;;3.67;2.72;;;;;;;19.43;65.42;97101.34;5046785;28;20036;-66
2022/09/03 09:16:22;;;;;;;5.15;2.63;;;;;;;19.67;65.04;97104.78;5054307;28;20052;-66
2022/09/03 09:18:49;;;;;;;3.50;2.50;;;;;;;19.53;65.73;97105.72;5061969;28;20041;-67
2022/09/03 09:21:23;;;;;;;5.50;2.58;;;;;;;19.78;65.51;97100.63;5047033;28;20041;-66
2022/09/03 09:24:00;;;;;;;10.40;3.10;;;;;;;19.86;64.43;97099.84;5045791;28;20099;-67
2022/09/03 09:26:27;;;;;;;5.32;2.72;;;;;;;19.73;64.81;97095.28;5046845;28;20052;-66
2022/09/03 09:29:00;;;;;;;5.93;2.95;;;;;;;19.65;65.44;97088.66;5057673;28;20492;-66
2022/09/03 09:31:29;;;;;;;5.30;2.70;;;;;;;19.61;65.96;97085.72;5047006;28;20475;-66
2022/09/03 09:34:05;;;;;;;6.63;3.65;;;;;;;19.55;66.40;97077.94;5046139;28;20037;-66
2022/09/03 09:36:48;;;;;;;4.75;2.97;;;;;;;19.50;66.23;97087.16;5046092;28;20044;-66
2022/09/03 09:39:14;;;;;;;6.47;3.03;;;;;;;19.61;66.63;97087.69;5045080;28;20048;-66
2022/09/03 09:41:43;;;;;;;5.93;3.10;;;;;;;19.66;66.41;97079.28;5046630;28;20037;-66
2022/09/03 09:44:19;;;;;;;4.55;2.90;;;;;;;19.72;66.53;97078.00;5046178;28;20045;-66
2022/09/03 09:46:46;;;;;;;6.35;3.08;;;;;;;19.72;66.77;97080.75;5065058;28;20123;-67
2022/09/03 09:49:31;;;;;;;5.25;2.72;;;;;;;19.82;67.19;97071.41;5048753;28;20473;-66
2022/09/03 09:52:04;;;;;;;4.53;3.00;;;;;;;19.98;66.02;97084.69;5064195;28;20052;-66
2022/09/03 09:54:31;;;;;;;4.93;3.10;;;;;;;19.96;65.75;97092.41;5046833;28;20115;-66
2022/09/03 09:57:02;;;;;;;5.55;2.63;;;;;;;20.03;65.99;97081.81;5045320;28;20593;-66
2022/09/03 09:59:29;;;;;;;;;;;;;;;20.07;65.67;97087.47;5040066;28;20038;-66
2022/09/03 10:02:10;;;;;;;6.00;2.88;;;;;;;20.21;64.97;97082.63;5046265;28;19921;-66
2022/09/03 10:04:47;;;;;;;4.82;2.70;;;;;;;20.21;64.22;97079.88;5046413;28;20040;-67
2022/09/03 10:07:30;;;;;;;4.18;2.72;;;;;;;20.09;64.81;97080.50;5045996;28;20045;-66
2022/09/03 10:10:13;;;;;;;4.28;2.60;;;;;;;20.22;64.39;97081.50;5035520;28;20045;-66
2022/09/03 10:12:58;;;;;;;4.57;2.85;;;;;;;20.45;63.80;97077.78;5042098;28;20037;-67
2022/09/03 10:15:38;;;;;;;5.10;2.83;;;;;;;20.70;62.47;97078.06;5053462;28;20052;-66
2022/09/03 10:18:33;;;;;;;5.07;3.30;;;;;;;20.67;63.62;97065.75;5046366;28;20049;-66
2022/09/03 10:21:09;;;;;;;4.72;2.88;;;;;;;20.81;62.23;97076.59;5045737;28;20048;-66
2022/09/03 10:23:58;;;;;;;3.83;2.50;;;;;;;20.97;62.04;97078.88;5044590;28;20060;-67
2022/09/03 10:26:31;;;;;;;9.73;2.58;;;;;;;21.47;59.39;97076.56;5045895;28;20037;-66
2022/09/03 10:29:01;;;;;;;7.10;2.35;;;;;;;21.44;57.79;97070.59;5046317;28;20049;-66
2022/09/03 10:31:52;;;;;;;4.63;2.78;;;;;;;21.61;57.71;97065.31;5045534;28;20048;-66
2022/09/03 10:34:23;;;;;;;;;;;;;;;21.52;58.30;97062.63;5046427;28;20049;-66
2022/09/03 10:36:59;;;;;;;5.03;2.30;;;;;;;21.44;59.36;97059.56;5045526;28;20404;-66
2022/09/03 10:39:57;;;;;;;5.13;2.47;;;;;;;21.49;59.72;97060.53;5045887;28;20049;-66
2022/09/03 10:42:34;;;;;;;4.88;2.78;;;;;;;21.26;59.95;97056.09;5026596;28;20648;-66
2022/09/03 10:45:42;;;;;;;6.72;3.30;;;;;;;21.63;59.93;97055.56;5042391;28;20052;-66
2022/09/03 10:48:17;;;;;;;4.25;2.60;;;;;;;21.79;58.42;97047.59;5041942;28;20475;-67
2022/09/03 10:50:55;;;;;;;3.45;2.60;;;;;;;21.93;57.72;97044.56;5043022;28;20045;-67
2022/09/03 10:53:35;;;;;;;4.88;2.50;;;;;;;21.59;58.23;97042.81;5044012;28;20435;-67
2022/09/03 10:56:36;;;;;;;3.92;2.47;;;;;;;21.69;58.88;97043.25;5044430;28;20049;-67
2022/09/03 10:59:14;;;;;;;6.88;3.20;;;;;;;21.84;58.58;97043.81;5040626;28;20053;-66
2022/09/03 11:02:03;;;;;;;4.18;2.28;;;;;;;21.87;57.90;97040.41;5038477;28;20037;-66
2022/09/03 11:04:59;;;;;;;3.83;2.35;;;;;;;21.72;58.68;97044.50;5038976;28;20650;-66
2022/09/03 11:07:34;;;;;;;4.50;2.13;;;;;;;21.73;58.12;97037.88;5036423;28;20053;-66
2022/09/03 11:10:11;;;;;;;4.20;2.30;;;;;;;21.81;58.74;97036.22;5045055;28;20496;-67
2022/09/03 11:12:45;;;;;;;4.35;1.85;;;;;;;22.04;57.73;97039.44;5045119;28;20037;-66
2022/09/03 11:15:52;;;;;;;4.35;2.40;;;;;;;21.80;57.24;97037.34;5044638;28;20052;-67
2022/09/03 11:18:37;;;;;;;4.35;2.65;;;;;;;21.90;56.48;97028.72;5042579;28;20056;-66
2022/09/03 11:21:09;;;;;;;4.10;2.17;;;;;;;22.05;56.69;97027.31;5042361;28;20071;-67
2022/09/03 11:23:44;;;;;;;4.03;2.50;;;;;;;21.88;56.80;97028.22;5043509;28;20090;-66
2022/09/03 11:26:15;;;;;;;3.30;2.30;;;;;;;21.83;57.31;97025.69;5044967;28;20045;-66
2022/09/03 11:28:57;;;;;;;5.07;2.70;;;;;;;22.03;56.29;97034.25;5044895;28;20087;-66
2022/09/03 11:31:46;;;;;;;5.50;2.50;;;;;;;22.15;56.24;97039.06;5045083;28;20040;-67
2022/09/03 11:34:26;;;;;;;5.75;3.17;;;;;;;22.12;56.87;97032.28;5044289;28;20067;-66
2022/09/03 11:37:17;;;;;;;7.80;2.50;;;;;;;22.55;55.23;97021.22;5043830;28;20301;-68
2022/09/03 11:39:52;;;;;;;4.90;2.58;;;;;;;22.03;55.70;97021.31;5044450;28;20554;-66
2022/09/03 11:42:39;;;;;;;6.43;2.40;;;;;;;22.40;55.02;97006.88;5045326;28;20040;-66
2022/09/03 11:45:29;;;;;;;6.88;2.42;;;;;;;22.69;55.72;97016.19;5048362;28;20572;-67
2022/09/03 11:47:55;;;;;;;4.85;2.53;;;;;;;22.10;55.59;97020.75;5049585;28;20051;-67
2022/09/03 11:50:26;;;;;;;3.80;2.15;;;;;;;22.33;56.96;97015.69;5048582;28;20041;-66
2022/09/03 11:53:06;;;;;;;3.50;2.25;;;;;;;22.37;55.93;97021.34;5048430;28;20033;-66
2022/09/03 11:55:54;;;;;;;4.32;2.72;;;;;;;22.23;55.93;97024.41;5047870;28;20052;-66
2022/09/03 11:58:26;;;;;;;3.55;2.10;;;;;;;22.08;55.44;97023.06;5047957;28;20041;-66
2022/09/03 12:00:53;;;;;;;3.72;2.10;;;;;;;22.11;55.28;97027.88;5048008;28;20059;-66
2022/09/03 12:03:27;;;;;;;4.35;2.28;;;;;;;21.74;56.74;97019.41;5042792;28;20052;-66
2022/09/03 12:06:11;;;;;;;3.63;2.20;;;;;;;21.68;56.71;97038.84;5042325;28;20037;-67